Observation data for Wolfforth on 12/13/2019      Previous  Date       Current Mesonet Observations  Soil Data  Daily Summary Page  Observations in Plain Language
KWOS 130600Z 29006KT 03/M03 A2999 RMK A01 T00321033  RH  063%=      5-min Rain = 0
KWOS 130605Z 29007KT 04/M03 A2998 RMK A01 T00351032  RH  062%=      5-min Rain = 0
KWOS 130610Z 29007KT 03/M04 A2998 RMK A01 T00341035  RH  061%=      5-min Rain = 0
KWOS 130615Z 29008KT 03/M03 A2998 RMK A01 T00341033  RH  062%=      5-min Rain = 0
KWOS 130620Z 29008KT 04/M04 A2997 RMK A01 T00361035  RH  060%=      5-min Rain = 0
KWOS 130625Z 29007KT 03/M04 A2997 RMK A01 T00311037  RH  061%=      5-min Rain = 0
KWOS 130630Z 29008KT 03/M04 A2997 RMK A01 T00271037  RH  063%=      5-min Rain = 0
KWOS 130635Z 29008KT 03/M04 A2997 RMK A01 T00261035  RH  064%=      5-min Rain = 0
KWOS 130640Z 29007KT 03/M04 A2997 RMK A01 T00251035  RH  065%=      5-min Rain = 0
KWOS 130645Z 29007KT 02/M04 A2996 RMK A01 T00241035  RH  065%=      5-min Rain = 0
KWOS 130650Z 29008KT 02/M03 A2997 RMK A01 T00241033  RH  066%=      5-min Rain = 0
KWOS 130655Z 28008KT 03/M03 A2996 RMK A01 T00251034  RH  066%=      5-min Rain = 0
KWOS 130700Z 28008KT 02/M03 A2996 RMK A01 T00241034  RH  066%=      5-min Rain = 0
KWOS 130705Z 28006KT 02/M04 A2996 RMK A01 T00201036  RH  067%=      5-min Rain = 0
KWOS 130710Z 27006KT 02/M04 A2996 RMK A01 T00151037  RH  068%=      5-min Rain = 0
KWOS 130715Z 28007KT 02/M03 A2996 RMK A01 T00151034  RH  070%=      5-min Rain = 0
KWOS 130720Z 28007KT 02/M03 A2995 RMK A01 T00171032  RH  070%=      5-min Rain = 0
KWOS 130725Z 28008KT 02/M03 A2996 RMK A01 T00171032  RH  070%=      5-min Rain = 0
KWOS 130730Z 28008KT 02/M03 A2996 RMK A01 T00201029  RH  071%=      5-min Rain = 0
KWOS 130735Z 29009KT 02/M03 A2996 RMK A01 T00241026  RH  070%=      5-min Rain = 0
KWOS 130740Z 28010KT 03/M02 A2996 RMK A01 T00341020  RH  068%=      5-min Rain = 0
KWOS 130745Z 29009KT 04/M02 A2996 RMK A01 T00421018  RH  065%=      5-min Rain = 0
KWOS 130750Z 30009KT 05/M02 A2996 RMK A01 T00471018  RH  063%=      5-min Rain = 0
KWOS 130755Z 30009KT 05/M02 A2996 RMK A01 T00491018  RH  062%=      5-min Rain = 0
KWOS 130800Z 31009KT 05/M02 A2996 RMK A01 T00491019  RH  062%=      5-min Rain = 0
KWOS 130805Z 31009KT 05/M02 A2995 RMK A01 T00521019  RH  061%=      5-min Rain = 0
KWOS 130810Z 31010KT 05/M02 A2996 RMK A01 T00531020  RH  059%=      5-min Rain = 0
KWOS 130815Z 30010KT 05/M02 A2995 RMK A01 T00541022  RH  059%=      5-min Rain = 0
KWOS 130820Z 30010KT 06/M02 A2995 RMK A01 T00571023  RH  057%=      5-min Rain = 0
KWOS 130825Z 31011KT 06/M03 A2996 RMK A01 T00621025  RH  054%=      5-min Rain = 0
KWOS 130830Z 31013KT 07/M03 A2996 RMK A01 T00731027  RH  050%=      5-min Rain = 0
KWOS 130835Z 30013KT 08/M03 A2996 RMK A01 T00771028  RH  047%=      5-min Rain = 0
KWOS 130840Z 31012KT 08/M03 A2996 RMK A01 T00761029  RH  048%=      5-min Rain = 0
KWOS 130845Z 31011KT 07/M03 A2997 RMK A01 T00721029  RH  049%=      5-min Rain = 0
KWOS 130850Z 32011KT 07/M03 A2997 RMK A01 T00691028  RH  050%=      5-min Rain = 0
KWOS 130855Z 31011KT 07/M03 A2997 RMK A01 T00671028  RH  051%=      5-min Rain = 0
KWOS 130900Z 31011KT 07/M03 A2997 RMK A01 T00671028  RH  051%=      5-min Rain = 0
KWOS 130905Z 30011KT 07/M03 A2997 RMK A01 T00651028  RH  052%=      5-min Rain = 0
KWOS 130910Z 29013KT 07/M03 A2997 RMK A01 T00651028  RH  052%=      5-min Rain = 0
KWOS 130915Z 30014KT 07/M03 A2997 RMK A01 T00651027  RH  052%=      5-min Rain = 0
KWOS 130920Z 30014KT 07/M03 A2997 RMK A01 T00661028  RH  051%=      5-min Rain = 0
KWOS 130925Z 31013KT 07/M03 A2997 RMK A01 T00651028  RH  052%=      5-min Rain = 0
KWOS 130930Z 31011KT 06/M03 A2996 RMK A01 T00611028  RH  053%=      5-min Rain = 0
KWOS 130935Z 31009KT 06/M03 A2996 RMK A01 T00561029  RH  055%=      5-min Rain = 0
KWOS 130940Z 32008KT 05/M03 A2996 RMK A01 T00501030  RH  057%=      5-min Rain = 0
KWOS 130945Z 32007KT 05/M03 A2996 RMK A01 T00461030  RH  058%=      5-min Rain = 0
KWOS 130950Z 32007KT 04/M03 A2996 RMK A01 T00431030  RH  059%=      5-min Rain = 0
KWOS 130955Z 32007KT 04/M03 A2995 RMK A01 T00401030  RH  061%=      5-min Rain = 0
KWOS 131000Z 31007KT 04/M03 A2995 RMK A01 T00391030  RH  061%=      5-min Rain = 0
KWOS 131005Z 30008KT 04/M03 A2996 RMK A01 T00371031  RH  062%=      5-min Rain = 0
KWOS 131010Z 31009KT 03/M03 A2996 RMK A01 T00341031  RH  063%=      5-min Rain = 0
KWOS 131015Z 30009KT 04/M03 A2996 RMK A01 T00351029  RH  063%=      5-min Rain = 0
KWOS 131020Z 30009KT 04/M03 A2996 RMK A01 T00391029  RH  062%=      5-min Rain = 0
KWOS 131025Z 29008KT 04/M03 A2995 RMK A01 T00401029  RH  061%=      5-min Rain = 0
KWOS 131030Z 30009KT 04/M03 A2995 RMK A01 T00391028  RH  062%=      5-min Rain = 0
KWOS 131035Z 30010KT 05/M03 A2995 RMK A01 T00461027  RH  060%=      5-min Rain = 0
KWOS 131040Z 29009KT 05/M03 A2994 RMK A01 T00481027  RH  059%=      5-min Rain = 0
KWOS 131045Z 30009KT 05/M03 A2994 RMK A01 T00531025  RH  057%=      5-min Rain = 0
KWOS 131050Z 30009KT 06/M03 A2994 RMK A01 T00561025  RH  056%=      5-min Rain = 0
KWOS 131055Z 30008KT 06/M03 A2994 RMK A01 T00561025  RH  056%=      5-min Rain = 0
KWOS 131100Z 30008KT 05/M03 A2994 RMK A01 T00541025  RH  057%=      5-min Rain = 0
KWOS 131105Z 30007KT 05/M03 A2994 RMK A01 T00531026  RH  057%=      5-min Rain = 0
KWOS 131110Z 30008KT 05/M03 A2995 RMK A01 T00511026  RH  058%=      5-min Rain = 0
KWOS 131115Z 30009KT 05/M03 A2995 RMK A01 T00531025  RH  058%=      5-min Rain = 0
KWOS 131120Z 30011KT 06/M02 A2995 RMK A01 T00561024  RH  057%=      5-min Rain = 0
KWOS 131125Z 31010KT 06/M02 A2995 RMK A01 T00561024  RH  057%=      5-min Rain = 0
KWOS 131130Z 34007KT 05/M03 A2995 RMK A01 T00531025  RH  058%=      5-min Rain = 0
KWOS 131135Z 35006KT 05/M03 A2996 RMK A01 T00471026  RH  059%=      5-min Rain = 0
KWOS 131140Z 33007KT 05/M03 A2996 RMK A01 T00471025  RH  060%=      5-min Rain = 0
KWOS 131145Z 31008KT 05/M02 A2995 RMK A01 T00501024  RH  059%=      5-min Rain = 0
KWOS 131150Z 31008KT 05/M02 A2995 RMK A01 T00491024  RH  060%=      5-min Rain = 0
KWOS 131155Z 32007KT 05/M02 A2995 RMK A01 T00471023  RH  061%=      5-min Rain = 0
KWOS 131200Z 32007KT 05/M02 A2995 RMK A01 T00471023  RH  061%=      5-min Rain = 0
KWOS 131205Z 32007KT 05/M02 A2995 RMK A01 T00451023  RH  062%=      5-min Rain = 0
KWOS 131210Z 32007KT 04/M02 A2995 RMK A01 T00441023  RH  062%=      5-min Rain = 0
KWOS 131215Z 32007KT 04/M02 A2995 RMK A01 T00421023  RH  063%=      5-min Rain = 0
KWOS 131220Z 31007KT 04/M02 A2995 RMK A01 T00411023  RH  064%=      5-min Rain = 0
KWOS 131225Z 31007KT 04/M02 A2995 RMK A01 T00411022  RH  064%=      5-min Rain = 0
KWOS 131230Z 30008KT 04/M02 A2995 RMK A01 T00421021  RH  064%=      5-min Rain = 0
KWOS 131235Z 30009KT 05/M02 A2995 RMK A01 T00451020  RH  063%=      5-min Rain = 0
KWOS 131240Z 31009KT 05/M02 A2995 RMK A01 T00451019  RH  063%=      5-min Rain = 0
KWOS 131245Z 31009KT 05/M02 A2995 RMK A01 T00471019  RH  063%=      5-min Rain = 0
KWOS 131250Z 31009KT 05/M02 A2996 RMK A01 T00501019  RH  062%=      5-min Rain = 0
KWOS 131255Z 32008KT 05/M02 A2995 RMK A01 T00501019  RH  062%=      5-min Rain = 0
KWOS 131300Z 31007KT 05/M02 A2995 RMK A01 T00491019  RH  062%=      5-min Rain = 0
KWOS 131305Z 30008KT 05/M02 A2996 RMK A01 T00481018  RH  063%=      5-min Rain = 0
KWOS 131310Z 30008KT 05/M02 A2995 RMK A01 T00481018  RH  063%=      5-min Rain = 0
KWOS 131315Z 30009KT 05/M02 A2995 RMK A01 T00481018  RH  063%=      5-min Rain = 0
KWOS 131320Z 31008KT 05/M02 A2995 RMK A01 T00461018  RH  063%=      5-min Rain = 0
KWOS 131325Z 31008KT 05/M02 A2995 RMK A01 T00461018  RH  063%=      5-min Rain = 0
KWOS 131330Z 31008KT 05/M02 A2995 RMK A01 T00471018  RH  063%=      5-min Rain = 0
KWOS 131335Z 30009KT 05/M02 A2996 RMK A01 T00471018  RH  063%=      5-min Rain = 0
KWOS 131340Z 30009KT 05/M02 A2996 RMK A01 T00481018  RH  063%=      5-min Rain = 0
KWOS 131345Z 30009KT 05/M02 A2996 RMK A01 T00481017  RH  063%=      5-min Rain = 0
KWOS 131350Z 30009KT 05/M02 A2996 RMK A01 T00491017  RH  063%=      5-min Rain = 0
KWOS 131355Z 30009KT 05/M02 A2996 RMK A01 T00501017  RH  063%=      5-min Rain = 0
KWOS 131400Z 30010KT 05/M02 A2996 RMK A01 T00521016  RH  062%=      5-min Rain = 0
KWOS 131405Z 30010G15KT 06/M02 A2996 RMK A01 T00551016  RH  061%=      5-min Rain = 0
KWOS 131410Z 30012KT 06/M02 A2996 RMK A01 T00581015  RH  060%=      5-min Rain = 0
KWOS 131415Z 30013KT 06/M01 A2997 RMK A01 T00621014  RH  059%=      5-min Rain = 0
KWOS 131420Z 29012KT 06/M01 A2996 RMK A01 T00641013  RH  058%=      5-min Rain = 0
KWOS 131425Z 30012KT 07/M01 A2996 RMK A01 T00661013  RH  058%=      5-min Rain = 0
KWOS 131430Z 29012KT 07/M01 A2996 RMK A01 T00671012  RH  057%=      5-min Rain = 0
KWOS 131435Z 30012KT 07/M01 A2996 RMK A01 T00691011  RH  057%=      5-min Rain = 0
KWOS 131440Z 30013KT 07/M01 A2997 RMK A01 T00721011  RH  056%=      5-min Rain = 0
KWOS 131445Z 30013KT 08/M01 A2997 RMK A01 T00751010  RH  055%=      5-min Rain = 0
KWOS 131450Z 31013KT 08/M01 A2998 RMK A01 T00791009  RH  054%=      5-min Rain = 0
KWOS 131455Z 31012KT 08/M01 A2998 RMK A01 T00821008  RH  054%=      5-min Rain = 0
KWOS 131500Z 30013KT 09/M01 A2997 RMK A01 T00871007  RH  052%=      5-min Rain = 0
KWOS 131505Z 30013KT 09/M01 A2997 RMK A01 T00931005  RH  051%=      5-min Rain = 0
KWOS 131510Z 30014KT 10/M01 A2997 RMK A01 T00971005  RH  049%=      5-min Rain = 0
KWOS 131515Z 30014KT 10/M00 A2996 RMK A01 T01011004  RH  048%=      5-min Rain = 0
KWOS 131520Z 30015G20KT 11/M00 A2996 RMK A01 T01071003  RH  047%=      5-min Rain = 0
KWOS 131525Z 30016KT 11/M00 A2997 RMK A01 T01111002  RH  046%=      5-min Rain = 0
KWOS 131530Z 30016G21KT 12/M00 A2997 RMK A01 T01161002  RH  045%=      5-min Rain = 0
KWOS 131535Z 30015G20KT 12/00 A2997 RMK A01 T012200-0  RH  044%=      5-min Rain = 0
KWOS 131540Z 30017G22KT 13/00 A2997 RMK A01 T01260000  RH  042%=      5-min Rain = 0
KWOS 131545Z 30016G21KT 13/00 A2997 RMK A01 T01300001  RH  042%=      5-min Rain = 0
KWOS 131550Z 30016KT 13/00 A2997 RMK A01 T01330001  RH  041%=      5-min Rain = 0
KWOS 131555Z 30013G19KT 14/00 A2996 RMK A01 T01380004  RH  040%=      5-min Rain = 0
KWOS 131600Z 30019G27KT 15/00 A2997 RMK A01 T01450004  RH  039%=      5-min Rain = 0
KWOS 131605Z 29020G28KT 15/00 A2996 RMK A01 T01510003  RH  037%=      5-min Rain = 0
KWOS 131610Z 30022G27KT 15/00 A2996 RMK A01 T01530002  RH  036%=      5-min Rain = 0
KWOS 131615Z 30021G26KT 16/00 A2997 RMK A01 T01560003  RH  036%=      5-min Rain = 0
KWOS 131620Z 30022G27KT 16/00 A2996 RMK A01 T01570002  RH  035%=      5-min Rain = 0
KWOS 131625Z 29019G26KT 16/00 A2996 RMK A01 T01590003  RH  035%=      5-min Rain = 0
KWOS 131630Z 29021KT 16/00 A2996 RMK A01 T01590002  RH  035%=      5-min Rain = 0
KWOS 131635Z 30020G29KT 16/00 A2996 RMK A01 T01610002  RH  034%=      5-min Rain = 0
KWOS 131640Z 30022G27KT 16/00 A2996 RMK A01 T01620001  RH  034%=      5-min Rain = 0
KWOS 131645Z 30021G28KT 17/00 A2996 RMK A01 T01650001  RH  033%=      5-min Rain = 0
KWOS 131650Z 30021G27KT 17/00 A2996 RMK A01 T01680002  RH  033%=      5-min Rain = 0
KWOS 131655Z 30020G25KT 17/00 A2995 RMK A01 T01690002  RH  032%=      5-min Rain = 0
KWOS 131700Z 30020G26KT 17/00 A2996 RMK A01 T01730002  RH  032%=      5-min Rain = 0
KWOS 131705Z 30021G28KT 18/00 A2996 RMK A01 T01760002  RH  031%=      5-min Rain = 0
KWOS 131710Z 30024G29KT 18/00 A2996 RMK A01 T01770001  RH  031%=      5-min Rain = 0
KWOS 131715Z 30023G30KT 18/00 A2996 RMK A01 T01800001  RH  030%=      5-min Rain = 0
KWOS 131720Z 30023G31KT 18/00 A2996 RMK A01 T01820001  RH  030%=      5-min Rain = 0
KWOS 131725Z 30023G31KT 19/00 A2996 RMK A01 T01850001  RH  029%=      5-min Rain = 0
KWOS 131730Z 30025G33KT 19/M00 A2995 RMK A01 T01861001  RH  029%=      5-min Rain = 0
KWOS 131735Z 30023G31KT 19/M00 A2995 RMK A01 T01871001  RH  029%=      5-min Rain = 0
KWOS 131740Z 30026G32KT 19/M00 A2995 RMK A01 T01861001  RH  029%=      5-min Rain = 0
KWOS 131745Z 30027G34KT 19/M00 A2995 RMK A01 T01881002  RH  028%=      5-min Rain = 0
KWOS 131750Z 30026G34KT 19/M00 A2994 RMK A01 T01881002  RH  028%=      5-min Rain = 0
KWOS 131755Z 30027G33KT 19/M00 A2994 RMK A01 T01881003  RH  028%=      5-min Rain = 0
KWOS 131800Z 30027G33KT 19/M00 A2993 RMK A01 T01871004  RH  028%=      5-min Rain = 0
KWOS 131805Z 30026G31KT 19/M00 A2993 RMK A01 T01891004  RH  027%=      5-min Rain = 0
KWOS 131810Z 30027G32KT 19/M00 A2993 RMK A01 T01911004  RH  027%=      5-min Rain = 0
KWOS 131815Z 30026G32KT 19/M01 A2993 RMK A01 T01921005  RH  027%=      5-min Rain = 0
KWOS 131820Z 29027G32KT 19/M00 A2993 RMK A01 T01921004  RH  027%=      5-min Rain = 0
KWOS 131825Z 30026G32KT 19/M01 A2993 RMK A01 T01911006  RH  027%=      5-min Rain = 0
KWOS 131830Z 29025G31KT 19/M00 A2993 RMK A01 T01911003  RH  027%=      5-min Rain = 0
KWOS 131835Z 29027KT 19/M00 A2993 RMK A01 T01921003  RH  027%=      5-min Rain = 0
KWOS 131840Z 29026G33KT 19/M00 A2992 RMK A01 T01931003  RH  027%=      5-min Rain = 0
KWOS 131845Z 29025G31KT 19/M00 A2992 RMK A01 T01931003  RH  027%=      5-min Rain = 0
KWOS 131850Z 30023G33KT 19/M00 A2991 RMK A01 T01931004  RH  027%=      5-min Rain = 0
KWOS 131855Z 29023G30KT 19/M00 A2991 RMK A01 T01931004  RH  027%=      5-min Rain = 0
KWOS 131900Z 30024G30KT 20/M00 A2991 RMK A01 T01971003  RH  026%=      5-min Rain = 0
KWOS 131905Z 30024G30KT 20/M00 A299 RMK A01 T01991004  RH  026%=      5-min Rain = 0
KWOS 131910Z 30024G32KT 20/M01 A299 RMK A01 T01971006  RH  026%=      5-min Rain = 0
KWOS 131915Z 31026G32KT 20/M01 A2989 RMK A01 T01951008  RH  026%=      5-min Rain = 0
KWOS 131920Z 31027G33KT 20/M01 A2989 RMK A01 T01961007  RH  026%=      5-min Rain = 0
KWOS 131925Z 30026G33KT 20/M01 A2989 RMK A01 T01971005  RH  026%=      5-min Rain = 0
KWOS 131930Z 30026G33KT 20/M01 A2989 RMK A01 T01981006  RH  026%=      5-min Rain = 0
KWOS 131935Z 30027G34KT 20/M01 A2989 RMK A01 T01981005  RH  026%=      5-min Rain = 0
KWOS 131940Z 30027G33KT 20/M01 A2989 RMK A01 T01971006  RH  026%=      5-min Rain = 0
KWOS 131945Z 31025G31KT 20/M01 A2988 RMK A01 T01991007  RH  025%=      5-min Rain = 0
KWOS 131950Z 30026G31KT 20/M01 A2989 RMK A01 T01981006  RH  026%=      5-min Rain = 0
KWOS 131955Z 31025G31KT 20/M01 A2989 RMK A01 T02001008  RH  025%=      5-min Rain = 0
KWOS 132000Z 30025G30KT 20/M01 A2988 RMK A01 T01981007  RH  025%=      5-min Rain = 0
KWOS 132005Z 31026G31KT 20/M01 A2988 RMK A01 T01991010  RH  025%=      5-min Rain = 0
KWOS 132010Z 31026G34KT 20/M01 A2988 RMK A01 T01981012  RH  024%=      5-min Rain = 0
KWOS 132015Z 31026G34KT 20/M01 A2988 RMK A01 T01961013  RH  025%=      5-min Rain = 0
KWOS 132020Z 31025G31KT 19/M01 A2989 RMK A01 T01931013  RH  025%=      5-min Rain = 0
KWOS 132025Z 31024G30KT 19/M01 A2989 RMK A01 T01941014  RH  025%=      5-min Rain = 0
KWOS 132030Z 31023G31KT 19/M01 A2988 RMK A01 T01931013  RH  025%=      5-min Rain = 0
KWOS 132035Z 31022G28KT 19/M01 A2988 RMK A01 T01931012  RH  025%=      5-min Rain = 0
KWOS 132040Z 32021G27KT 19/M01 A2988 RMK A01 T01931012  RH  025%=      5-min Rain = 0
KWOS 132045Z 32022G27KT 20/M01 A2988 RMK A01 T01961011  RH  025%=      5-min Rain = 0
KWOS 132050Z 32021G26KT 20/M01 A2988 RMK A01 T02011008  RH  025%=      5-min Rain = 0
KWOS 132055Z 32019G25KT 20/M01 A2987 RMK A01 T02021008  RH  025%=      5-min Rain = 0
KWOS 132100Z 32021KT 20/M01 A2987 RMK A01 T02031009  RH  024%=      5-min Rain = 0
KWOS 132105Z 32020G27KT 20/M01 A2988 RMK A01 T02041010  RH  024%=      5-min Rain = 0
KWOS 132110Z 32022G27KT 21/M01 A2988 RMK A01 T02061014  RH  023%=      5-min Rain = 0
KWOS 132115Z 31020G27KT 21/M02 A2987 RMK A01 T02071015  RH  023%=      5-min Rain = 0
KWOS 132120Z 31023G31KT 21/M02 A2987 RMK A01 T02071017  RH  022%=      5-min Rain = 0
KWOS 132125Z 30023G29KT 21/M02 A2987 RMK A01 T02081020  RH  022%=      5-min Rain = 0
KWOS 132130Z 30022G29KT 21/M03 A2987 RMK A01 T02091027  RH  020%=      5-min Rain = 0
KWOS 132135Z 31025G33KT 21/M03 A2987 RMK A01 T02091030  RH  020%=      5-min Rain = 0
KWOS 132140Z 30021G27KT 21/M03 A2987 RMK A01 T02081031  RH  020%=      5-min Rain = 0
KWOS 132145Z 30023G31KT 21/M03 A2987 RMK A01 T02051032  RH  020%=      5-min Rain = 0
KWOS 132150Z 31023G29KT 20/M03 A2987 RMK A01 T02011033  RH  020%=      5-min Rain = 0
KWOS 132155Z 30019G27KT 20/M03 A2987 RMK A01 T02021029  RH  021%=      5-min Rain = 0
KWOS 132200Z 31020G25KT 20/M03 A2987 RMK A01 T02031029  RH  021%=      5-min Rain = 0
KWOS 132205Z 31021KT 20/M03 A2987 RMK A01 T02041025  RH  021%=      5-min Rain = 0
KWOS 132210Z 31020G25KT 20/M03 A2987 RMK A01 T02041025  RH  021%=      5-min Rain = 0
KWOS 132215Z 30019G25KT 20/M03 A2988 RMK A01 T02041026  RH  021%=      5-min Rain = 0
KWOS 132220Z 30022G29KT 20/M03 A2987 RMK A01 T02041030  RH  021%=      5-min Rain = 0
KWOS 132225Z 30021G28KT 20/M03 A2988 RMK A01 T02031031  RH  021%=      5-min Rain = 0
KWOS 132230Z 31019G26KT 20/M03 A2988 RMK A01 T02031031  RH  021%=      5-min Rain = 0
KWOS 132235Z 31020G27KT 20/M03 A2988 RMK A01 T02021031  RH  021%=      5-min Rain = 0
KWOS 132240Z 30018G24KT 20/M03 A2988 RMK A01 T02011030  RH  021%=      5-min Rain = 0
KWOS 132245Z 30019G25KT 20/M03 A2989 RMK A01 T02001029  RH  021%=      5-min Rain = 0
KWOS 132250Z 29017G23KT 20/M03 A2988 RMK A01 T01991030  RH  021%=      5-min Rain = 0
KWOS 132255Z 29019KT 20/M03 A2989 RMK A01 T01971032  RH  021%=      5-min Rain = 0
KWOS 132300Z 29019G24KT 20/M04 A2988 RMK A01 T01961035  RH  021%=      5-min Rain = 0
KWOS 132305Z 30016KT 19/M04 A2988 RMK A01 T01941036  RH  021%=      5-min Rain = 0
KWOS 132310Z 29014KT 19/M04 A2988 RMK A01 T01911037  RH  021%=      5-min Rain = 0
KWOS 132315Z 30014KT 19/M04 A2987 RMK A01 T01891037  RH  021%=      5-min Rain = 0
KWOS 132320Z 30014KT 19/M04 A2988 RMK A01 T01861037  RH  022%=      5-min Rain = 0
KWOS 132325Z 30013G18KT 18/M04 A2988 RMK A01 T01841038  RH  022%=      5-min Rain = 0
KWOS 132330Z 29013G19KT 18/M04 A2988 RMK A01 T01801038  RH  022%=      5-min Rain = 0
KWOS 132335Z 30014G19KT 18/M04 A2988 RMK A01 T01801040  RH  022%=      5-min Rain = 0
KWOS 132340Z 30012KT 18/M04 A2988 RMK A01 T01761039  RH  023%=      5-min Rain = 0
KWOS 132345Z 29011KT 17/M04 A2989 RMK A01 T01701039  RH  024%=      5-min Rain = 0
KWOS 132350Z 30012KT 17/M04 ANAN RMK A01 T01691039  RH  024%=      5-min Rain = 0
KWOS 132355Z 29012KT 17/M04 A2989 RMK A01 T01691040  RH  024%=      5-min Rain = 0
KWOS 140000Z 29011KT 17/M04 A2989 RMK A01 T01651040  RH  024%=      5-min Rain = 0
KWOS 140005Z 29010KT 16/M04 A2989 RMK A01 T01611039  RH  025%=      5-min Rain = 0
KWOS 140010Z 29011KT 16/M04 A2989 RMK A01 T01581040  RH  026%=      5-min Rain = 0
KWOS 140015Z 29010KT 16/M04 A2989 RMK A01 T01561039  RH  026%=      5-min Rain = 0
KWOS 140020Z 29011KT 15/M04 A2989 RMK A01 T01531039  RH  026%=      5-min Rain = 0
KWOS 140025Z 29011KT 15/M04 A2989 RMK A01 T01531039  RH  027%=      5-min Rain = 0
KWOS 140030Z 29012KT 15/M04 A2989 RMK A01 T01541038  RH  027%=      5-min Rain = 0
KWOS 140035Z 29013KT 15/M04 A2989 RMK A01 T01531037  RH  027%=      5-min Rain = 0
KWOS 140040Z 29014KT 15/M04 A2989 RMK A01 T01541036  RH  027%=      5-min Rain = 0
KWOS 140045Z 30014KT 15/M04 A2989 RMK A01 T01521035  RH  027%=      5-min Rain = 0
KWOS 140050Z 29014KT 15/M03 A299 RMK A01 T01501034  RH  028%=      5-min Rain = 0
KWOS 140055Z 29014KT 15/M03 A299 RMK A01 T01491033  RH  028%=      5-min Rain = 0
KWOS 140100Z 29013KT 15/M03 A299 RMK A01 T01471034  RH  029%=      5-min Rain = 0
KWOS 140105Z 29014KT 15/M03 A299 RMK A01 T01491033  RH  029%=      5-min Rain = 0
KWOS 140110Z 29013KT 15/M03 A2991 RMK A01 T01481033  RH  029%=      5-min Rain = 0
KWOS 140115Z 29013KT 15/M03 A2991 RMK A01 T01481033  RH  029%=      5-min Rain = 0
KWOS 140120Z 29013KT 15/M03 A2991 RMK A01 T01471033  RH  029%=      5-min Rain = 0
KWOS 140125Z 29013KT 15/M03 A2991 RMK A01 T01461033  RH  029%=      5-min Rain = 0
KWOS 140130Z 30012KT 15/M03 A2991 RMK A01 T01451033  RH  029%=      5-min Rain = 0
KWOS 140135Z 30012KT 14/M03 A2991 RMK A01 T01401033  RH  030%=      5-min Rain = 0
KWOS 140140Z 30012KT 14/M03 A2992 RMK A01 T01371033  RH  031%=      5-min Rain = 0
KWOS 140145Z 30012KT 14/M03 A2992 RMK A01 T01351032  RH  031%=      5-min Rain = 0
KWOS 140150Z 29012KT 13/M03 A2992 RMK A01 T01331032  RH  032%=      5-min Rain = 0
KWOS 140155Z 29011KT 13/M03 A2993 RMK A01 T01311031  RH  032%=      5-min Rain = 0
KWOS 140200Z 29010KT 13/M03 A2993 RMK A01 T01261032  RH  033%=      5-min Rain = 0
KWOS 140205Z 30009KT 12/M03 A2993 RMK A01 T01211032  RH  035%=      5-min Rain = 0
KWOS 140210Z 29010KT 12/M03 A2993 RMK A01 T01161032  RH  036%=      5-min Rain = 0
KWOS 140215Z 28011KT 12/M03 A2993 RMK A01 T01171033  RH  035%=      5-min Rain = 0
KWOS 140220Z 28010KT 12/M03 A2993 RMK A01 T01151033  RH  035%=      5-min Rain = 0
KWOS 140225Z 28010KT 11/M03 A2993 RMK A01 T01131033  RH  036%=      5-min Rain = 0
KWOS 140230Z 29011KT 11/M03 A2993 RMK A01 T01121033  RH  036%=      5-min Rain = 0
KWOS 140235Z 30011KT 11/M03 A2993 RMK A01 T01141032  RH  036%=      5-min Rain = 0
KWOS 140240Z 30011KT 11/M03 A2993 RMK A01 T01121031  RH  037%=      5-min Rain = 0
KWOS 140245Z 30011KT 11/M03 A2993 RMK A01 T01121032  RH  037%=      5-min Rain = 0
KWOS 140250Z 30010KT 11/M03 A2993 RMK A01 T01091032  RH  037%=      5-min Rain = 0
KWOS 140255Z 30010KT 11/M03 A2993 RMK A01 T01071031  RH  038%=      5-min Rain = 0
KWOS 140300Z 30010KT 11/M03 A2993 RMK A01 T01061031  RH  039%=      5-min Rain = 0
KWOS 140305Z 30010KT 10/M03 A2993 RMK A01 T01041030  RH  039%=      5-min Rain = 0
KWOS 140310Z 30009KT 10/M03 A2993 RMK A01 T01021029  RH  040%=      5-min Rain = 0
KWOS 140315Z 29009KT 10/M03 A2993 RMK A01 T01011029  RH  040%=      5-min Rain = 0
KWOS 140320Z 29008KT 10/M03 A2993 RMK A01 T00981030  RH  041%=      5-min Rain = 0
KWOS 140325Z 29008KT 10/M03 A2993 RMK A01 T00971029  RH  041%=      5-min Rain = 0
KWOS 140330Z 30008KT 10/M03 A2993 RMK A01 T00981028  RH  041%=      5-min Rain = 0
KWOS 140335Z 30008KT 10/M03 A2993 RMK A01 T00971028  RH  042%=      5-min Rain = 0
KWOS 140340Z 31008KT 10/M03 A2993 RMK A01 T00961028  RH  042%=      5-min Rain = 0
KWOS 140345Z 31008KT 10/M03 A2993 RMK A01 T00981027  RH  041%=      5-min Rain = 0
KWOS 140350Z 32008KT 10/M03 A2993 RMK A01 T01001027  RH  041%=      5-min Rain = 0
KWOS 140355Z 33008KT 10/M03 A2993 RMK A01 T01021027  RH  041%=      5-min Rain = 0
KWOS 140400Z 32008KT 10/M03 A2993 RMK A01 T01011027  RH  041%=      5-min Rain = 0
KWOS 140405Z 33008KT 10/M03 A2993 RMK A01 T00981027  RH  042%=      5-min Rain = 0
KWOS 140410Z 32007KT 10/M03 A2992 RMK A01 T00961027  RH  042%=      5-min Rain = 0
KWOS 140415Z 32008KT 09/M03 A2992 RMK A01 T00941027  RH  043%=      5-min Rain = 0
KWOS 140420Z 31008KT 09/M03 A2992 RMK A01 T00911027  RH  044%=      5-min Rain = 0
KWOS 140425Z 31009KT 09/M03 A2992 RMK A01 T00911027  RH  044%=      5-min Rain = 0
KWOS 140430Z 31009KT 09/M03 A2992 RMK A01 T00931026  RH  043%=      5-min Rain = 0
KWOS 140435Z 31009KT 09/M03 A2992 RMK A01 T00931027  RH  043%=      5-min Rain = 0
KWOS 140440Z 30009KT 09/M03 A2992 RMK A01 T00911027  RH  044%=      5-min Rain = 0
KWOS 140445Z 30008KT 09/M03 A2992 RMK A01 T00871027  RH  045%=      5-min Rain = 0
KWOS 140450Z 31007KT 08/M03 A2992 RMK A01 T00841027  RH  046%=      5-min Rain = 0
KWOS 140455Z 31007KT 08/M03 A2992 RMK A01 T00841027  RH  046%=      5-min Rain = 0
KWOS 140500Z 31008KT 08/M03 A2992 RMK A01 T00831027  RH  046%=      5-min Rain = 0
KWOS 140505Z 30009KT 08/M03 A2992 RMK A01 T00831027  RH  046%=      5-min Rain = 0
KWOS 140510Z 29008KT 08/M03 A2992 RMK A01 T00811028  RH  047%=      5-min Rain = 0
KWOS 140515Z 29008KT 08/M03 A2992 RMK A01 T00791028  RH  047%=      5-min Rain = 0
KWOS 140520Z 29008KT 08/M03 A2992 RMK A01 T00791028  RH  047%=      5-min Rain = 0
KWOS 140525Z 30008KT 08/M03 A2992 RMK A01 T00791027  RH  047%=      5-min Rain = 0
KWOS 140530Z 31007KT 08/M03 A2993 RMK A01 T00771027  RH  048%=      5-min Rain = 0
KWOS 140535Z 31006KT 08/M03 A2993 RMK A01 T00751028  RH  048%=      5-min Rain = 0
KWOS 140540Z 31006KT 07/M03 A2994 RMK A01 T00741028  RH  049%=      5-min Rain = 0
KWOS 140545Z 32005KT 07/M03 A2993 RMK A01 T00731029  RH  049%=      5-min Rain = 0
KWOS 140550Z 31005KT 07/M03 A2993 RMK A01 T00711030  RH  049%=      5-min Rain = 0
KWOS 140555Z 32006KT 07/M03 A2993 RMK A01 T00691031  RH  049%=      5-min Rain = 0

Page generated in 0.0089 seconds.